Time;durP1;ratioP1;P1;durP2;ratioP2;P2;SDS_P1;SDS_P2;PMS_P1;PMS_P2;Temp;Humidity;BMP_temperature;BMP_pressure;BME280_temperature;BME280_humidity;BME280_pressure;Samples;Min_cycle;Max_cycle;Signal;HPM_P1;HPM_P2
2023/06/14 00:01:38;;;;;;;0.52;0.52;;;;;;;;;;10335080;28;20224;-77
2023/06/14 00:06:39;;;;;;;0.50;0.50;;;;;;;;;;10334554;28;20223;-77
2023/06/14 00:11:41;;;;;;;2.28;0.60;;;;;;;;;;10313275;28;20223;-75
2023/06/14 00:16:45;;;;;;;1.05;0.57;;;;;;;;;;10330688;28;20586;-75
2023/06/14 00:21:46;;;;;;;0.60;0.60;;;;;;;;;;10337831;28;20224;-75
2023/06/14 00:26:47;;;;;;;0.47;0.47;;;;;;;;;;10339756;28;20220;-77
2023/06/14 00:31:48;;;;;;;0.50;0.50;;;;;;;;;;10333731;28;20604;-78
2023/06/14 00:36:49;;;;;;;0.57;0.57;;;;;;;;;;10340710;28;20840;-74
2023/06/14 00:41:50;;;;;;;0.60;0.60;;;;;;;;;;10340130;28;20226;-76
2023/06/14 00:46:52;;;;;;;0.43;0.43;;;;;;;;;;10338507;28;20216;-76
2023/06/14 00:51:53;;;;;;;0.70;0.70;;;;;;;;;;10355287;28;20223;-76
2023/06/14 00:56:54;;;;;;;0.52;0.50;;;;;;;;;;10331379;28;20223;-76
2023/06/14 01:01:55;;;;;;;0.65;0.50;;;;;;;;;;10343092;28;20311;-76
2023/06/14 01:07:13;;;;;;;0.57;0.57;;;;;;;;;;10346737;28;20760;-73
2023/06/14 01:12:20;;;;;;;2.50;0.70;;;;;;;;;;10322942;28;20234;-76
2023/06/14 01:17:23;;;;;;;0.68;0.60;;;;;;;;;;10353435;28;20258;-75
2023/06/14 01:22:27;;;;;;;0.68;0.55;;;;;;;;;;10360426;28;20320;-74
2023/06/14 01:27:32;;;;;;;0.45;0.45;;;;;;;;;;10346401;28;20251;-77
2023/06/14 01:32:33;;;;;;;0.70;0.70;;;;;;;;;;10348065;28;20231;-74
2023/06/14 01:37:36;;;;;;;0.65;0.65;;;;;;;;;;10343046;28;20223;-75
2023/06/14 01:42:38;;;;;;;1.52;0.60;;;;;;;;;;10340647;28;20575;-75
2023/06/14 01:47:39;;;;;;;0.70;0.70;;;;;;;;;;10342101;28;20215;-76
2023/06/14 01:52:40;;;;;;;0.50;0.50;;;;;;;;;;10333850;28;20246;-76
2023/06/14 01:57:41;;;;;;;1.52;0.65;;;;;;;;;;10339353;28;20214;-76
2023/06/14 02:02:42;;;;;;;0.52;0.52;;;;;;;;;;10336671;28;20228;-76
2023/06/14 02:07:43;;;;;;;0.85;0.60;;;;;;;;;;10331211;28;20305;-76
2023/06/14 02:12:45;;;;;;;0.50;0.50;;;;;;;;;;10331291;28;20254;-77
2023/06/14 02:17:47;;;;;;;0.50;0.50;;;;;;;;;;10334221;28;20208;-76
2023/06/14 02:22:48;;;;;;;0.70;0.70;;;;;;;;;;10327427;28;20295;-76
2023/06/14 02:27:49;;;;;;;0.70;0.70;;;;;;;;;;10336724;28;20262;-76
2023/06/14 02:32:51;;;;;;;0.40;0.40;;;;;;;;;;10340623;28;20339;-76
2023/06/14 02:37:52;;;;;;;0.60;0.60;;;;;;;;;;10359391;28;20212;-74
2023/06/14 02:42:53;;;;;;;0.70;0.70;;;;;;;;;;10354296;28;20311;-76
2023/06/14 02:47:55;;;;;;;1.13;0.93;;;;;;;;;;10343643;28;20218;-76
2023/06/14 02:52:56;;;;;;;2.08;0.75;;;;;;;;;;10338800;28;20247;-75
2023/06/14 02:57:58;;;;;;;1.17;0.75;;;;;;;;;;10340686;28;20246;-76
2023/06/14 03:03:01;;;;;;;0.80;0.80;;;;;;;;;;10335658;28;20251;-76
2023/06/14 03:08:03;;;;;;;1.65;0.90;;;;;;;;;;10340040;28;20212;-76
2023/06/14 03:13:04;;;;;;;0.95;0.95;;;;;;;;;;10338546;28;20258;-76
2023/06/14 03:18:07;;;;;;;1.25;1.15;;;;;;;;;;10332853;28;20208;-77
2023/06/14 03:23:10;;;;;;;0.80;0.80;;;;;;;;;;10331465;28;20953;-76
2023/06/14 03:28:12;;;;;;;1.02;0.90;;;;;;;;;;10348566;28;20224;-76
2023/06/14 03:33:13;;;;;;;0.90;0.90;;;;;;;;;;10320891;28;20339;-76
2023/06/14 03:38:15;;;;;;;0.77;0.77;;;;;;;;;;10313553;28;20697;-76
2023/06/14 03:43:17;;;;;;;0.90;0.90;;;;;;;;;;10311967;28;20212;-76
2023/06/14 03:48:18;;;;;;;1.95;1.00;;;;;;;;;;10330709;28;20338;-76
2023/06/14 03:53:23;;;;;;;1.60;0.93;;;;;;;;;;10330219;28;20223;-76
2023/06/14 03:58:25;;;;;;;1.13;1.02;;;;;;;;;;10330494;28;20231;-76
2023/06/14 04:03:29;;;;;;;1.10;1.10;;;;;;;;;;10331105;28;20212;-77
2023/06/14 04:08:30;;;;;;;1.40;1.17;;;;;;;;;;10316769;28;20211;-76
2023/06/14 04:13:34;;;;;;;1.70;1.33;;;;;;;;;;10330125;28;20350;-76
2023/06/14 04:18:36;;;;;;;1.73;1.48;;;;;;;;;;10329335;28;20239;-76
2023/06/14 04:23:38;;;;;;;1.20;1.20;;;;;;;;;;10336995;28;20208;-76
2023/06/14 04:28:40;;;;;;;1.40;1.30;;;;;;;;;;10336733;28;20238;-77
2023/06/14 04:33:46;;;;;;;1.23;1.23;;;;;;;;;;10335878;28;20274;-76
2023/06/14 04:38:53;;;;;;;1.55;1.20;;;;;;;;;;10340595;28;20767;-75
2023/06/14 04:43:57;;;;;;;1.48;1.38;;;;;;;;;;10316452;28;20343;-76
2023/06/14 04:49:02;;;;;;;2.05;1.55;;;;;;;;;;10341430;28;21742;-76
2023/06/14 04:54:03;;;;;;;2.03;1.92;;;;;;;;;;10359097;28;20247;-75
2023/06/14 04:59:05;;;;;;;1.50;1.50;;;;;;;;;;10333950;28;20991;-76
2023/06/14 05:04:06;;;;;;;1.80;1.70;;;;;;;;;;10336642;28;20239;-76
2023/06/14 05:09:07;;;;;;;2.08;1.60;;;;;;;;;;10338518;28;20255;-75
2023/06/14 05:14:08;;;;;;;2.15;1.92;;;;;;;;;;10337151;28;22068;-76
2023/06/14 05:19:10;;;;;;;2.08;2.00;;;;;;;;;;10354552;28;20819;-76
2023/06/14 05:24:11;;;;;;;2.45;1.85;;;;;;;;;;10341537;28;20215;-76
2023/06/14 05:29:12;;;;;;;2.85;1.63;;;;;;;;;;10338481;28;20273;-76
2023/06/14 05:34:13;;;;;;;3.83;1.60;;;;;;;;;;10336646;28;20220;-76
2023/06/14 05:39:14;;;;;;;2.13;1.90;;;;;;;;;;10341873;28;20216;-76
2023/06/14 05:44:15;;;;;;;1.55;1.45;;;;;;;;;;10338975;28;20230;-76
2023/06/14 05:49:16;;;;;;;1.98;1.50;;;;;;;;;;10337739;28;20235;-76
2023/06/14 05:54:17;;;;;;;1.98;1.70;;;;;;;;;;10332169;28;20226;-74
2023/06/14 05:59:18;;;;;;;2.10;1.85;;;;;;;;;;10338783;28;20614;-75
2023/06/14 06:04:20;;;;;;;1.92;1.90;;;;;;;;;;10333867;28;20306;-73
2023/06/14 06:09:21;;;;;;;1.60;1.60;;;;;;;;;;10319421;28;20235;-75
2023/06/14 06:14:22;;;;;;;1.67;1.65;;;;;;;;;;10331899;28;20728;-74
2023/06/14 06:19:23;;;;;;;5.65;1.67;;;;;;;;;;10335195;28;20271;-76
2023/06/14 06:24:24;;;;;;;5.15;1.75;;;;;;;;;;10331641;28;20780;-74
2023/06/14 06:29:25;;;;;;;3.50;1.20;;;;;;;;;;10337284;28;20255;-73
2023/06/14 06:34:26;;;;;;;1.65;1.65;;;;;;;;;;10322196;28;20224;-74
2023/06/14 06:39:27;;;;;;;1.55;1.45;;;;;;;;;;10334745;28;20224;-74
2023/06/14 06:44:28;;;;;;;1.33;1.33;;;;;;;;;;10331089;28;20235;-74
2023/06/14 06:49:30;;;;;;;1.38;1.38;;;;;;;;;;10343674;28;20231;-75
2023/06/14 06:54:32;;;;;;;1.40;1.40;;;;;;;;;;10333857;28;20224;-76
2023/06/14 06:59:33;;;;;;;1.70;1.70;;;;;;;;;;10340103;28;20298;-75
2023/06/14 07:04:34;;;;;;;2.00;1.40;;;;;;;;;;10330977;28;20216;-72
2023/06/14 07:09:35;;;;;;;1.45;1.45;;;;;;;;;;10337330;28;20212;-75
2023/06/14 07:14:36;;;;;;;1.42;1.33;;;;;;;;;;10333879;28;20270;-74
2023/06/14 07:19:37;;;;;;;1.95;1.00;;;;;;;;;;10323767;28;21256;-74
2023/06/14 07:24:41;;;;;;;1.20;1.05;;;;;;;;;;10303613;28;20223;-75
2023/06/14 07:29:42;;;;;;;0.70;0.70;;;;;;;;;;10333826;28;20722;-75
2023/06/14 07:34:43;;;;;;;0.82;0.82;;;;;;;;;;10326691;28;20220;-76
2023/06/14 07:39:44;;;;;;;0.80;0.80;;;;;;;;;;10333242;28;20350;-75
2023/06/14 07:44:45;;;;;;;1.48;0.90;;;;;;;;;;10328859;28;20216;-76
2023/06/14 07:49:46;;;;;;;0.90;0.90;;;;;;;;;;10329830;28;20328;-76
2023/06/14 07:54:47;;;;;;;0.80;0.80;;;;;;;;;;10334053;28;21534;-75
2023/06/14 07:59:48;;;;;;;1.00;1.00;;;;;;;;;;10325543;28;21193;-75
2023/06/14 08:04:49;;;;;;;4.38;1.10;;;;;;;;;;10341424;28;20223;-75
2023/06/14 08:09:51;;;;;;;1.20;1.10;;;;;;;;;;10340841;28;21103;-79
2023/06/14 08:14:52;;;;;;;1.85;1.00;;;;;;;;;;10350790;28;20311;-77
2023/06/14 08:19:57;;;;;;;1.00;1.00;;;;;;;;;;10334619;28;21138;-78
2023/06/14 08:24:58;;;;;;;0.90;0.90;;;;;;;;;;10342239;28;20638;-77
2023/06/14 08:29:58;;;;;;;1.00;1.00;;;;;;;;;;10335577;28;20236;-77
2023/06/14 08:35:00;;;;;;;0.80;0.80;;;;;;;;;;10332676;28;20228;-78
2023/06/14 08:40:01;;;;;;;0.77;0.77;;;;;;;;;;10334711;28;20215;-78
2023/06/14 08:45:02;;;;;;;1.67;0.95;;;;;;;;;;10333167;28;20204;-77
2023/06/14 08:50:04;;;;;;;0.93;0.93;;;;;;;;;;10334077;28;20310;-77
2023/06/14 08:55:05;;;;;;;1.20;1.10;;;;;;;;;;10330724;28;20240;-77
2023/06/14 09:00:12;;;;;;;0.82;0.82;;;;;;;;;;10337533;28;20211;-78
2023/06/14 09:05:14;;;;;;;2.58;0.90;;;;;;;;;;10345737;28;20188;-78
2023/06/14 09:10:15;;;;;;;1.00;1.00;;;;;;;;;;10335703;28;20363;-77
2023/06/14 09:15:16;;;;;;;1.30;0.90;;;;;;;;;;10337067;28;20303;-76
2023/06/14 09:20:18;;;;;;;1.17;1.02;;;;;;;;;;10344947;28;20228;-78
2023/06/14 09:25:19;;;;;;;1.75;0.80;;;;;;;;;;10336559;28;20650;-77
2023/06/14 09:30:21;;;;;;;2.15;1.00;;;;;;;;;;10334504;28;20228;-77
2023/06/14 09:35:22;;;;;;;1.00;1.00;;;;;;;;;;10344611;28;20214;-77
2023/06/14 09:40:23;;;;;;;1.07;1.07;;;;;;;;;;10340331;28;20220;-77
2023/06/14 09:45:25;;;;;;;2.05;1.27;;;;;;;;;;10351379;28;20196;-77
2023/06/14 09:50:26;;;;;;;1.48;1.45;;;;;;;;;;10360998;28;20228;-77
2023/06/14 09:55:27;;;;;;;1.40;1.40;;;;;;;;;;10347568;28;20232;-77
2023/06/14 10:00:31;;;;;;;2.05;1.55;;;;;;;;;;10342903;28;20233;-77
2023/06/14 10:05:33;;;;;;;1.83;1.20;;;;;;;;;;10326103;28;20219;-77
2023/06/14 10:10:34;;;;;;;1.75;1.75;;;;;;;;;;10339499;28;20219;-77
2023/06/14 10:15:43;;;;;;;1.20;1.20;;;;;;;;;;10345179;28;20250;-78
2023/06/14 10:21:08;;;;;;;1.67;1.10;;;;;;;;;;10347909;28;20216;-78
2023/06/14 10:26:09;;;;;;;3.85;1.45;;;;;;;;;;10343045;28;20228;-78
2023/06/14 10:31:11;;;;;;;1.73;1.48;;;;;;;;;;10345179;28;20219;-78
2023/06/14 10:36:26;;;;;;;0.90;0.90;;;;;;;;;;10351066;28;20212;-79
2023/06/14 10:41:28;;;;;;;1.65;1.20;;;;;;;;;;10343985;28;20250;-78
2023/06/14 10:46:29;;;;;;;1.27;1.27;;;;;;;;;;10342235;28;20303;-78
2023/06/14 10:51:45;;;;;;;2.15;1.30;;;;;;;;;;10333055;28;20254;-78
2023/06/14 10:56:52;;;;;;;2.80;1.40;;;;;;;;;;10345179;28;20227;-78
2023/06/14 11:02:12;;;;;;;2.33;1.23;;;;;;;;;;10334759;28;20045;-78
2023/06/14 11:07:19;;;;;;;1.20;1.20;;;;;;;;;;10346940;28;20227;-77
2023/06/14 11:12:21;;;;;;;0.80;0.80;;;;;;;;;;10356307;28;20216;-78
2023/06/14 11:17:22;;;;;;;2.60;1.20;;;;;;;;;;10335957;28;20601;-79
2023/06/14 11:22:23;;;;;;;1.85;1.30;;;;;;;;;;10355401;28;20227;-78
2023/06/14 11:27:30;;;;;;;1.00;1.00;;;;;;;;;;10343601;28;20212;-78
2023/06/14 11:32:32;;;;;;;2.40;1.40;;;;;;;;;;10335323;28;20227;-78
2023/06/14 11:37:33;;;;;;;1.20;1.20;;;;;;;;;;10344160;28;20283;-78
2023/06/14 11:42:34;;;;;;;1.30;1.10;;;;;;;;;;10335783;28;20223;-78
2023/06/14 11:47:36;;;;;;;4.00;1.42;;;;;;;;;;10344758;28;20212;-79
2023/06/14 11:52:37;;;;;;;2.60;1.25;;;;;;;;;;10343993;28;20227;-79
2023/06/14 11:57:39;;;;;;;1.95;1.30;;;;;;;;;;10336778;28;20235;-78
2023/06/14 12:02:40;;;;;;;1.77;1.10;;;;;;;;;;10334035;28;20650;-78
2023/06/14 12:07:41;;;;;;;1.15;1.15;;;;;;;;;;10334963;28;20254;-78
2023/06/14 12:12:42;;;;;;;1.20;1.20;;;;;;;;;;10339467;28;20222;-77
2023/06/14 12:17:43;;;;;;;1.38;1.38;;;;;;;;;;10335228;28;20222;-78
2023/06/14 12:22:56;;;;;;;1.05;1.05;;;;;;;;;;10332245;28;20207;-78
2023/06/14 12:27:58;;;;;;;1.23;1.15;;;;;;;;;;10333214;28;20562;-79
2023/06/14 12:33:00;;;;;;;1.42;1.20;;;;;;;;;;10321214;28;20224;-79
2023/06/14 12:38:01;;;;;;;1.80;1.38;;;;;;;;;;10340418;28;20208;-79
2023/06/14 12:43:03;;;;;;;3.13;1.17;;;;;;;;;;10359434;28;21161;-78
2023/06/14 12:48:04;;;;;;;2.25;1.17;;;;;;;;;;10358494;28;21054;-78
2023/06/14 12:53:05;;;;;;;1.85;1.27;;;;;;;;;;10328669;28;20231;-79
2023/06/14 12:58:07;;;;;;;1.10;1.10;;;;;;;;;;10357511;28;20236;-79
2023/06/14 13:03:08;;;;;;;1.75;1.13;;;;;;;;;;10345345;28;20281;-79
2023/06/14 13:08:09;;;;;;;5.25;1.38;;;;;;;;;;10340461;28;20234;-79
2023/06/14 13:13:12;;;;;;;1.20;1.20;;;;;;;;;;10341790;28;22309;-79
2023/06/14 13:18:13;;;;;;;3.33;1.23;;;;;;;;;;10341824;28;20220;-79
2023/06/14 13:23:16;;;;;;;1.30;1.20;;;;;;;;;;10326164;28;20613;-80
2023/06/14 13:28:17;;;;;;;1.27;1.27;;;;;;;;;;10343861;28;20789;-77
2023/06/14 13:33:18;;;;;;;1.20;1.20;;;;;;;;;;10334840;28;20216;-77
2023/06/14 13:38:19;;;;;;;1.45;1.45;;;;;;;;;;10329806;28;20221;-78
2023/06/14 13:43:20;;;;;;;1.65;1.42;;;;;;;;;;10333274;28;20223;-77
2023/06/14 13:48:21;;;;;;;5.90;1.35;;;;;;;;;;10334933;28;20208;-79
2023/06/14 13:53:22;;;;;;;1.08;1.08;;;;;;;;;;10336557;28;21057;-79
2023/06/14 13:58:23;;;;;;;4.70;1.50;;;;;;;;;;10343414;28;20204;-79
2023/06/14 14:03:24;;;;;;;2.20;1.17;;;;;;;;;;10357322;28;20211;-79
2023/06/14 14:08:26;;;;;;;1.48;0.90;;;;;;;;;;10334693;28;20274;-77
2023/06/14 14:13:27;;;;;;;2.58;0.98;;;;;;;;;;10330514;28;20354;-76
2023/06/14 14:18:28;;;;;;;0.80;0.80;;;;;;;;;;10340622;28;20234;-78
2023/06/14 14:23:29;;;;;;;1.88;1.27;;;;;;;;;;10342512;28;20721;-78
2023/06/14 14:28:31;;;;;;;1.10;1.10;;;;;;;;;;10333573;28;20326;-78
2023/06/14 14:33:32;;;;;;;1.30;1.30;;;;;;;;;;10336598;28;20231;-80
2023/06/14 14:38:33;;;;;;;1.27;1.02;;;;;;;;;;10351266;28;20231;-78
2023/06/14 14:43:34;;;;;;;9.80;1.23;;;;;;;;;;10337646;28;20219;-78
2023/06/14 14:48:35;;;;;;;1.30;1.20;;;;;;;;;;10322704;28;20211;-78
2023/06/14 14:53:36;;;;;;;1.23;1.13;;;;;;;;;;10335100;28;20693;-77
2023/06/14 14:58:37;;;;;;;1.10;1.10;;;;;;;;;;10336494;28;20215;-78
2023/06/14 15:03:38;;;;;;;3.40;1.50;;;;;;;;;;10336488;28;20226;-78
2023/06/14 15:08:39;;;;;;;1.42;1.25;;;;;;;;;;10341104;28;20289;-80
2023/06/14 15:13:40;;;;;;;6.05;1.42;;;;;;;;;;10332108;28;20216;-81
2023/06/14 15:18:41;;;;;;;;;;;;;;;;;;10340135;28;20307;-82
2023/06/14 15:23:42;;;;;;;2.35;1.55;;;;;;;;;;10328649;28;20413;-80
2023/06/14 15:28:43;;;;;;;2.20;1.30;;;;;;;;;;10332096;28;20216;-78
2023/06/14 15:33:44;;;;;;;1.13;1.13;;;;;;;;;;10323610;28;20235;-79
2023/06/14 15:38:45;;;;;;;1.45;1.00;;;;;;;;;;10325803;28;20219;-79
2023/06/14 15:43:47;;;;;;;4.85;1.40;;;;;;;;;;10337252;28;20270;-79
2023/06/14 15:48:49;;;;;;;2.00;1.30;;;;;;;;;;10356368;28;20475;-79
2023/06/14 15:53:50;;;;;;;4.78;1.35;;;;;;;;;;10339422;28;20269;-78
2023/06/14 15:58:51;;;;;;;5.00;1.10;;;;;;;;;;10345091;28;20211;-78
2023/06/14 16:03:52;;;;;;;1.27;1.13;;;;;;;;;;10344575;28;20234;-79
2023/06/14 16:08:53;;;;;;;1.20;1.20;;;;;;;;;;10340728;28;20987;-79
2023/06/14 16:13:55;;;;;;;1.00;1.00;;;;;;;;;;10342785;28;20226;-79
2023/06/14 16:18:56;;;;;;;1.25;1.25;;;;;;;;;;10342711;28;20293;-80
2023/06/14 16:23:57;;;;;;;1.10;1.10;;;;;;;;;;10342327;28;21060;-79
2023/06/14 16:28:58;;;;;;;3.10;1.42;;;;;;;;;;10344732;28;20286;-80
2023/06/14 16:33:59;;;;;;;1.40;1.30;;;;;;;;;;10333416;28;20227;-79
2023/06/14 16:39:00;;;;;;;4.20;1.42;;;;;;;;;;10333980;28;20234;-79
2023/06/14 16:44:03;;;;;;;1.88;1.35;;;;;;;;;;10337912;28;20748;-79
2023/06/14 16:49:05;;;;;;;1.13;1.13;;;;;;;;;;10329716;28;20303;-77
2023/06/14 16:54:06;;;;;;;1.45;1.35;;;;;;;;;;10331602;28;20227;-77
2023/06/14 16:59:07;;;;;;;1.17;1.08;;;;;;;;;;10332731;28;20227;-78
2023/06/14 17:04:08;;;;;;;1.30;1.20;;;;;;;;;;10313444;28;20220;-80
2023/06/14 17:09:09;;;;;;;2.60;1.38;;;;;;;;;;10330090;28;20702;-77
2023/06/14 17:14:12;;;;;;;1.80;1.13;;;;;;;;;;10306453;28;20212;-77
2023/06/14 17:19:13;;;;;;;1.58;1.48;;;;;;;;;;10344008;28;20208;-78
2023/06/14 17:24:14;;;;;;;1.40;1.40;;;;;;;;;;10330736;28;23596;-78
2023/06/14 17:29:15;;;;;;;2.67;1.40;;;;;;;;;;10335090;28;20224;-77
2023/06/14 17:34:16;;;;;;;1.13;1.13;;;;;;;;;;10341694;28;20956;-78
2023/06/14 17:39:18;;;;;;;1.40;1.30;;;;;;;;;;10343547;28;20401;-79
2023/06/14 17:44:19;;;;;;;1.45;1.42;;;;;;;;;;10338077;28;20319;-79
2023/06/14 17:49:23;;;;;;;1.70;1.23;;;;;;;;;;10363044;28;21663;-79
2023/06/14 17:54:24;;;;;;;1.60;1.50;;;;;;;;;;10344721;28;20212;-80
2023/06/14 17:59:25;;;;;;;1.20;1.20;;;;;;;;;;10348560;28;20235;-79
2023/06/14 18:04:27;;;;;;;2.15;1.50;;;;;;;;;;10343075;28;20219;-80
2023/06/14 18:09:28;;;;;;;3.40;1.65;;;;;;;;;;10308334;28;20216;-79
2023/06/14 18:14:29;;;;;;;1.88;1.35;;;;;;;;;;10337250;28;20278;-79
2023/06/14 18:19:30;;;;;;;1.67;1.52;;;;;;;;;;10330706;28;20215;-80
2023/06/14 18:24:31;;;;;;;1.88;1.65;;;;;;;;;;10331024;28;20346;-79
2023/06/14 18:29:33;;;;;;;2.20;1.42;;;;;;;;;;10333762;28;20223;-79
2023/06/14 18:34:34;;;;;;;1.58;1.20;;;;;;;;;;10328684;28;20220;-79
2023/06/14 18:39:35;;;;;;;;;;;;;;;;;;10332127;28;20228;-78
2023/06/14 18:44:36;;;;;;;;;;;;;;;;;;10333109;28;19922;-78
2023/06/14 18:49:37;;;;;;;;;;;;;;;;;;10327967;28;19921;-79
2023/06/14 18:54:38;;;;;;;;;;;;;;;;;;10331495;28;20391;-78
2023/06/14 18:59:39;;;;;;;;;;;;;;;;;;10336301;28;19926;-80
2023/06/14 19:04:40;;;;;;;;;;;;;;;;;;10323552;28;20838;-80
2023/06/14 19:09:41;;;;;;;;;;;;;;;;;;10328713;28;19926;-80
2023/06/14 19:14:42;;;;;;;;;;;;;;;;;;10330500;28;19921;-78
2023/06/14 19:19:44;;;;;;;;;;;;;;;;;;10330955;28;19917;-80
2023/06/14 19:24:45;;;;;;;;;;;;;;;;;;10326452;28;19956;-79
2023/06/14 19:29:46;;;;;;;;;;;;;;;;;;10329322;28;19936;-79
2023/06/14 19:34:47;;;;;;;;;;;;;;;;;;10330425;28;19929;-79
2023/06/14 19:39:48;;;;;;;;;;;;;;;;;;10323626;28;19921;-80
2023/06/14 19:44:49;;;;;;;;;;;;;;;;;;10326667;28;19928;-79
2023/06/14 19:49:50;;;;;;;;;;;;;;;;;;10323055;28;19925;-79
2023/06/14 19:54:51;;;;;;;;;;;;;;;;;;10321590;28;19979;-79
2023/06/14 19:59:52;;;;;;;;;;;;;;;;;;10327642;28;20302;-79
2023/06/14 20:04:54;;;;;;;;;;;;;;;;;;10340214;28;19928;-78
2023/06/14 20:09:55;;;;;;;;;;;;;;;;;;10336824;28;19932;-78
2023/06/14 20:14:56;;;;;;;;;;;;;;;;;;10337375;28;20761;-78
2023/06/14 20:19:57;;;;;;;;;;;;;;;;;;10342544;28;19922;-79
2023/06/14 20:24:58;;;;;;;;;;;;;;;;;;10344688;28;19922;-79
2023/06/14 20:29:59;;;;;;;;;;;;;;;;;;10344005;28;20052;-78
2023/06/14 20:35:00;;;;;;;;;;;;;;;;;;10306523;28;20319;-79
2023/06/14 20:40:07;;;;;;;;;;;;;;;;;;10322909;28;20593;-77
2023/06/14 20:45:08;;;;;;;;;;;;;;;;;;10305328;28;20711;-78
2023/06/14 20:50:11;;;;;;;;;;;;;;;;;;10309789;28;19928;-76
2023/06/14 20:55:12;;;;;;;;;;;;;;;;;;10307421;28;19932;-77
2023/06/14 21:00:13;;;;;;;;;;;;;;;;;;10326456;28;19956;-76
2023/06/14 21:05:14;;;;;;;;;;;;;;;;;;10330847;28;19909;-76
2023/06/14 21:10:15;;;;;;;;;;;;;;;;;;10350913;28;19972;-76
2023/06/14 21:15:16;;;;;;;;;;;;;;;;;;10356164;28;19926;-77
2023/06/14 21:20:17;;;;;;;;;;;;;;;;;;10337838;28;19920;-78
2023/06/14 21:25:17;;;;;;;;;;;;;;;;;;10329316;28;20510;-77
2023/06/14 21:30:18;;;;;;;;;;;;;;;;;;10326212;28;19936;-77
2023/06/14 21:35:19;;;;;;;;;;;;;;;;;;10345953;28;19965;-76
2023/06/14 21:40:20;;;;;;;;;;;;;;;;;;10343877;28;19917;-76
2023/06/14 21:45:21;;;;;;;;;;;;;;;;;;10347201;28;19917;-76
2023/06/14 21:50:24;;;;;;;;;;;;;;;;;;10335011;28;19933;-77
2023/06/14 21:55:25;;;;;;;;;;;;;;;;;;10336806;28;19936;-76
2023/06/14 22:00:26;;;;;;;;;;;;;;;;;;10346278;28;19918;-75
2023/06/14 22:05:27;;;;;;;;;;;;;;;;;;10343320;28;19917;-76
2023/06/14 22:10:29;;;;;;;;;;;;;;;;;;10342233;28;19917;-77
2023/06/14 22:15:31;;;;;;;;;;;;;;;;;;10363265;28;19964;-75
2023/06/14 22:20:32;;;;;;;;;;;;;;;;;;10344348;28;19917;-77
2023/06/14 22:25:33;;;;;;;;;;;;;;;;;;10342618;28;20090;-76
2023/06/14 22:30:36;;;;;;;;;;;;;;;;;;10345801;28;19925;-77
2023/06/14 22:35:37;;;;;;;;;;;;;;;;;;10337952;28;20647;-75
2023/06/14 22:40:38;;;;;;;;;;;;;;;;;;10341004;28;19918;-77
2023/06/14 22:45:40;;;;;;;;;;;;;;;;;;10341229;28;20659;-76
2023/06/14 22:50:41;;;;;;;;;;;;;;;;;;10347774;28;19921;-75
2023/06/14 22:55:41;;;;;;;;;;;;;;;;;;10342317;28;20392;-77
2023/06/14 23:00:46;;;;;;;;;;;;;;;;;;10341857;28;19949;-77
2023/06/14 23:05:47;;;;;;;;;;;;;;;;;;10344412;28;20788;-76
2023/06/14 23:10:48;;;;;;;;;;;;;;;;;;10360226;28;19921;-76
2023/06/14 23:15:49;;;;;;;;;;;;;;;;;;10343824;28;19917;-76
2023/06/14 23:20:51;;;;;;;;;;;;;;;;;;10337087;28;19944;-76
2023/06/14 23:25:54;;;;;;;;;;;;;;;;;;10329079;28;19928;-76
2023/06/14 23:30:55;;;;;;;;;;;;;;;;;;10320994;28;19929;-76
2023/06/14 23:35:57;;;;;;;;;;;;;;;;;;10332228;28;19921;-76
2023/06/14 23:40:58;;;;;;;;;;;;;;;;;;10338730;28;19928;-76
2023/06/14 23:45:59;;;;;;;;;;;;;;;;;;10340280;28;19917;-76
2023/06/14 23:51:00;;;;;;;;;;;;;;;;;;10337201;28;19921;-75
2023/06/14 23:56:02;;;;;;;;;;;;;;;;;;10338898;28;19921;-76
